Green River, WY

10:24 PM MDT on March 22, 2017 (GMT -0600)
State street area | | Change Station
Active Advisory: Special Statement

Elev 6146 ft 41.50 °N, 109.45 °W | Updated 4 minutes ago

Overcast
Overcast
45.3 °F
Feels Like 44 °F
N
3.8
Wind Variable Wind from West
Gusts 5.3 mph

Today
High -- | Low -- °F
--% Chance of Precip.
Yesterday
High -- | Low -- °F
Precip. -- in
Pressure 29.86 in
Visibility 10.0 miles
Clouds Mostly Cloudy 2600 ft
Mostly Cloudy 4000 ft
Overcast 5000 ft
Windchill 44 °F
Dew Point 43 °F
Humidity 93%
Rainfall 0.13 in
Snow Depth Not available.
7:17 AM 7:32 PM
Waning Crescent, 26% visible
SPECI KRKS 230419Z AUTO 09003KT 10SM -RA BKN026 BKN040 OVC050 07/04 A2986 RMK AO2 P0000 T00670044
Pressure 29.86 in
Visibility 10.0 miles
Clouds Mostly Cloudy 2600 ft
Mostly Cloudy 4000 ft
Overcast 5000 ft
Windchill 44 °F
Dew Point 43 °F
Humidity 93%
Rainfall 0.13 in
Snow Depth Not available.
7:17 AM 7:32 PM
Waning Crescent, 26% visible
SPECI KRKS 230419Z AUTO 09003KT 10SM -RA BKN026 BKN040 OVC050 07/04 A2986 RMK AO2 P0000 T00670044

Get Your Daily Forecast Email!

Thanks for signing up!

Be on the lookout for a verification email in your inbox.

You'll start receiving severe weather alerts in your inbox..

×

10-Day Weather Forecast

Almanac

Astronomy

Mar. 22, 2017 Rise Set
Actual Time
Civil Twilight
Nautical Twilight
Astronomical Twilight
Moon
Length of Visible Light
Length of Day
Tomorrow will be .
, % of the Moon is Illuminated

Today's Extremes

State Highs State Lows

Community

WunderPhotos

Upload Photos

1,962,540 photos uploaded!

WunderBlog® & News

Nearby

Air Quality

  Air Quality AQ Index Pollutant
Not available.

Snow Depth

Station Depth Elevation

Earthquake Activity

City Distance Mag. Time & Date
Minimum magnitude displayed is 2.5.

Earthquake Activity

City Distance Mag. Time & Date
Minimum magnitude displayed is 2.5.

Coastal Water Temperatures

Place Temperature

Stations

Nearby Weather Stations

Station Location Temp. Windchill Dew Point Humidity Wind Precip. Elev Updated Type
                   

Watches & Warnings

Special Statement
Issued: 4:08 PM MDT Mar. 22, 2017 – National Weather Service

A new storm system will bring a variety of weather across
southern Lincoln and Sweetwater County today through Thursday.
Showers and isolated afternoon thunderstorms... some on the
stronger side with small hail and gusty winds... are expected
during the remainder of this afternoon and continue at times
through Thursday. There could be periods of rain and snow tonight
and Thursday with all snow as the system exists Thursday evening.
Snowfall accumulation, will range from 1 to 4 inches across
southern Lincoln County to a trace to an inch across Sweetwater
County... with a few of the higher hills and mountains seeing
perhaps a couple inches.


Team Riverton